sensor_id;sensor_type;location;lat;lon;timestamp;temperature;humidity
16198;DHT22;8206;51.440;6.914;2022-11-04T00:02:03;10.80;1.00
16198;DHT22;8206;51.440;6.914;2022-11-04T00:04:30;10.80;1.00
16198;DHT22;8206;51.440;6.914;2022-11-04T00:06:58;10.80;1.00
16198;DHT22;8206;51.440;6.914;2022-11-04T00:09:26;10.80;1.00
16198;DHT22;8206;51.440;6.914;2022-11-04T00:11:54;10.70;1.00
16198;DHT22;8206;51.440;6.914;2022-11-04T00:14:38;10.70;1.00
16198;DHT22;8206;51.440;6.914;2022-11-04T00:17:07;10.60;1.00
16198;DHT22;8206;51.440;6.914;2022-11-04T00:19:44;10.60;1.00
16198;DHT22;8206;51.440;6.914;2022-11-04T00:22:30;10.60;1.00
16198;DHT22;8206;51.440;6.914;2022-11-04T00:25:14;10.50;1.00
16198;DHT22;8206;51.440;6.914;2022-11-04T00:28:04;10.50;1.00
16198;DHT22;8206;51.440;6.914;2022-11-04T00:30:53;10.50;1.00
16198;DHT22;8206;51.440;6.914;2022-11-04T00:33:19;10.50;1.00
16198;DHT22;8206;51.440;6.914;2022-11-04T00:35:53;10.50;1.00
16198;DHT22;8206;51.440;6.914;2022-11-04T00:38:22;10.50;1.00
16198;DHT22;8206;51.440;6.914;2022-11-04T00:40:49;10.50;1.00
16198;DHT22;8206;51.440;6.914;2022-11-04T00:43:15;10.50;1.00
16198;DHT22;8206;51.440;6.914;2022-11-04T00:45:42;10.50;1.00
16198;DHT22;8206;51.440;6.914;2022-11-04T00:48:09;10.50;1.00
16198;DHT22;8206;51.440;6.914;2022-11-04T00:50:36;10.60;1.00
16198;DHT22;8206;51.440;6.914;2022-11-04T00:53:03;10.60;1.00
16198;DHT22;8206;51.440;6.914;2022-11-04T00:55:32;10.60;1.00
16198;DHT22;8206;51.440;6.914;2022-11-04T00:57:58;10.60;1.00
16198;DHT22;8206;51.440;6.914;2022-11-04T01:00:25;10.60;1.00
16198;DHT22;8206;51.440;6.914;2022-11-04T01:02:52;10.70;1.00
16198;DHT22;8206;51.440;6.914;2022-11-04T01:05:19;10.70;1.00
16198;DHT22;8206;51.440;6.914;2022-11-04T01:07:46;10.70;1.00
16198;DHT22;8206;51.440;6.914;2022-11-04T01:10:13;10.70;1.00
16198;DHT22;8206;51.440;6.914;2022-11-04T01:12:41;10.70;1.00
16198;DHT22;8206;51.440;6.914;2022-11-04T01:15:08;10.60;1.00
16198;DHT22;8206;51.440;6.914;2022-11-04T01:17:35;10.60;1.00
16198;DHT22;8206;51.440;6.914;2022-11-04T01:20:02;10.60;1.00
16198;DHT22;8206;51.440;6.914;2022-11-04T01:22:29;10.60;1.00
16198;DHT22;8206;51.440;6.914;2022-11-04T01:24:56;10.50;1.00
16198;DHT22;8206;51.440;6.914;2022-11-04T01:27:22;10.50;1.00
16198;DHT22;8206;51.440;6.914;2022-11-04T01:29:50;10.50;1.00
16198;DHT22;8206;51.440;6.914;2022-11-04T01:32:17;10.40;1.00
16198;DHT22;8206;51.440;6.914;2022-11-04T01:34:45;10.40;1.00
16198;DHT22;8206;51.440;6.914;2022-11-04T01:37:12;10.50;1.00
16198;DHT22;8206;51.440;6.914;2022-11-04T01:39:39;10.50;1.00
16198;DHT22;8206;51.440;6.914;2022-11-04T01:42:05;10.50;1.00
16198;DHT22;8206;51.440;6.914;2022-11-04T01:44:54;10.50;1.00
16198;DHT22;8206;51.440;6.914;2022-11-04T01:47:25;10.50;1.00
16198;DHT22;8206;51.440;6.914;2022-11-04T01:49:56;10.50;1.00
16198;DHT22;8206;51.440;6.914;2022-11-04T01:52:28;10.60;1.00
16198;DHT22;8206;51.440;6.914;2022-11-04T01:54:59;10.60;1.00
16198;DHT22;8206;51.440;6.914;2022-11-04T01:57:31;10.50;1.00
16198;DHT22;8206;51.440;6.914;2022-11-04T02:00:04;10.50;1.00
16198;DHT22;8206;51.440;6.914;2022-11-04T02:02:32;10.60;1.00
16198;DHT22;8206;51.440;6.914;2022-11-04T02:05:00;10.60;1.00
16198;DHT22;8206;51.440;6.914;2022-11-04T02:07:27;10.50;1.00
16198;DHT22;8206;51.440;6.914;2022-11-04T02:09:55;10.50;1.00
16198;DHT22;8206;51.440;6.914;2022-11-04T02:12:22;10.50;1.00
16198;DHT22;8206;51.440;6.914;2022-11-04T02:15:09;10.50;1.00
16198;DHT22;8206;51.440;6.914;2022-11-04T02:17:52;10.20;1.00
16198;DHT22;8206;51.440;6.914;2022-11-04T02:20:30;10.00;20.30
16198;DHT22;8206;51.440;6.914;2022-11-04T02:23:23;10.00;99.90
16198;DHT22;8206;51.440;6.914;2022-11-04T02:29:25;9.90;99.90
16198;DHT22;8206;51.440;6.914;2022-11-04T02:31:58;9.90;99.90
16198;DHT22;8206;51.440;6.914;2022-11-04T02:34:35;9.90;99.90
16198;DHT22;8206;51.440;6.914;2022-11-04T02:37:11;9.80;99.90
16198;DHT22;8206;51.440;6.914;2022-11-04T02:39:49;9.70;99.90
16198;DHT22;8206;51.440;6.914;2022-11-04T02:42:24;9.60;1.00
16198;DHT22;8206;51.440;6.914;2022-11-04T02:44:59;9.50;1.00
16198;DHT22;8206;51.440;6.914;2022-11-04T02:47:29;9.40;1.00
16198;DHT22;8206;51.440;6.914;2022-11-04T02:50:01;9.30;99.90
16198;DHT22;8206;51.440;6.914;2022-11-04T02:52:38;9.30;1.00
16198;DHT22;8206;51.440;6.914;2022-11-04T02:55:10;9.20;1.00
16198;DHT22;8206;51.440;6.914;2022-11-04T02:57:41;9.20;1.00
16198;DHT22;8206;51.440;6.914;2022-11-04T03:00:12;9.10;99.90
16198;DHT22;8206;51.440;6.914;2022-11-04T03:02:41;9.00;1.00
16198;DHT22;8206;51.440;6.914;2022-11-04T03:05:11;9.00;1.00
16198;DHT22;8206;51.440;6.914;2022-11-04T03:07:41;9.00;99.90
16198;DHT22;8206;51.440;6.914;2022-11-04T03:10:15;9.00;1.00
16198;DHT22;8206;51.440;6.914;2022-11-04T03:12:46;9.00;1.00
16198;DHT22;8206;51.440;6.914;2022-11-04T03:15:19;8.90;99.90
16198;DHT22;8206;51.440;6.914;2022-11-04T03:17:52;8.90;1.00
16198;DHT22;8206;51.440;6.914;2022-11-04T03:20:22;8.80;1.00
16198;DHT22;8206;51.440;6.914;2022-11-04T03:22:50;8.80;1.00
16198;DHT22;8206;51.440;6.914;2022-11-04T03:25:21;8.70;1.00
16198;DHT22;8206;51.440;6.914;2022-11-04T03:27:58;8.70;53.40
16198;DHT22;8206;51.440;6.914;2022-11-04T03:30:35;8.70;99.90
16198;DHT22;8206;51.440;6.914;2022-11-04T03:33:06;8.70;52.10
16198;DHT22;8206;51.440;6.914;2022-11-04T03:35:37;8.70;1.00
16198;DHT22;8206;51.440;6.914;2022-11-04T03:38:04;8.60;1.00
16198;DHT22;8206;51.440;6.914;2022-11-04T03:40:31;8.60;1.00
16198;DHT22;8206;51.440;6.914;2022-11-04T03:42:59;8.60;1.00
16198;DHT22;8206;51.440;6.914;2022-11-04T03:45:29;8.50;3.30
16198;DHT22;8206;51.440;6.914;2022-11-04T03:47:57;8.50;99.90
16198;DHT22;8206;51.440;6.914;2022-11-04T03:50:26;8.50;99.90
16198;DHT22;8206;51.440;6.914;2022-11-04T03:52:54;8.50;99.90
16198;DHT22;8206;51.440;6.914;2022-11-04T03:55:25;8.40;99.90
16198;DHT22;8206;51.440;6.914;2022-11-04T03:57:56;8.50;99.90
16198;DHT22;8206;51.440;6.914;2022-11-04T04:00:32;8.40;99.90
16198;DHT22;8206;51.440;6.914;2022-11-04T04:03:05;8.40;99.90
16198;DHT22;8206;51.440;6.914;2022-11-04T04:05:36;8.30;99.90
16198;DHT22;8206;51.440;6.914;2022-11-04T04:08:11;8.30;99.90
16198;DHT22;8206;51.440;6.914;2022-11-04T04:10:45;8.20;99.90
16198;DHT22;8206;51.440;6.914;2022-11-04T04:13:20;8.20;99.90
16198;DHT22;8206;51.440;6.914;2022-11-04T04:15:55;8.20;1.00
16198;DHT22;8206;51.440;6.914;2022-11-04T04:18:30;8.10;1.00
16198;DHT22;8206;51.440;6.914;2022-11-04T04:21:01;8.10;1.00
16198;DHT22;8206;51.440;6.914;2022-11-04T04:23:30;8.10;1.00
16198;DHT22;8206;51.440;6.914;2022-11-04T04:26:17;8.10;1.00
16198;DHT22;8206;51.440;6.914;2022-11-04T04:29:03;8.10;1.00
16198;DHT22;8206;51.440;6.914;2022-11-04T04:31:33;8.00;1.00
16198;DHT22;8206;51.440;6.914;2022-11-04T04:34:20;8.00;1.00
16198;DHT22;8206;51.440;6.914;2022-11-04T04:36:53;7.90;1.00
16198;DHT22;8206;51.440;6.914;2022-11-04T04:39:23;7.90;1.00
16198;DHT22;8206;51.440;6.914;2022-11-04T04:42:09;8.00;18.60
16198;DHT22;8206;51.440;6.914;2022-11-04T04:44:54;8.00;45.90
16198;DHT22;8206;51.440;6.914;2022-11-04T04:47:43;7.90;71.30
16198;DHT22;8206;51.440;6.914;2022-11-04T04:50:12;7.90;96.90
16198;DHT22;8206;51.440;6.914;2022-11-04T04:52:41;7.90;99.90
16198;DHT22;8206;51.440;6.914;2022-11-04T04:55:10;7.90;99.90
16198;DHT22;8206;51.440;6.914;2022-11-04T04:57:37;7.90;99.90
16198;DHT22;8206;51.440;6.914;2022-11-04T05:00:05;7.90;99.90
16198;DHT22;8206;51.440;6.914;2022-11-04T05:02:32;7.90;99.90
16198;DHT22;8206;51.440;6.914;2022-11-04T05:05:01;7.80;99.90
16198;DHT22;8206;51.440;6.914;2022-11-04T05:07:27;7.90;99.90
16198;DHT22;8206;51.440;6.914;2022-11-04T05:09:54;7.90;99.90
16198;DHT22;8206;51.440;6.914;2022-11-04T05:12:21;7.90;99.90
16198;DHT22;8206;51.440;6.914;2022-11-04T05:14:48;7.80;99.90
16198;DHT22;8206;51.440;6.914;2022-11-04T05:17:14;7.80;99.90
16198;DHT22;8206;51.440;6.914;2022-11-04T05:19:41;7.80;99.90
16198;DHT22;8206;51.440;6.914;2022-11-04T05:22:09;7.80;99.90
16198;DHT22;8206;51.440;6.914;2022-11-04T05:24:36;7.80;99.90
16198;DHT22;8206;51.440;6.914;2022-11-04T05:27:03;7.80;99.90
16198;DHT22;8206;51.440;6.914;2022-11-04T05:29:29;7.80;99.90
16198;DHT22;8206;51.440;6.914;2022-11-04T05:31:56;7.80;99.90
16198;DHT22;8206;51.440;6.914;2022-11-04T05:34:23;7.80;99.90
16198;DHT22;8206;51.440;6.914;2022-11-04T05:36:49;7.80;99.90
16198;DHT22;8206;51.440;6.914;2022-11-04T05:39:18;7.80;99.90
16198;DHT22;8206;51.440;6.914;2022-11-04T05:41:44;7.90;99.90
16198;DHT22;8206;51.440;6.914;2022-11-04T05:44:11;7.90;99.90
16198;DHT22;8206;51.440;6.914;2022-11-04T05:46:38;8.00;99.90
16198;DHT22;8206;51.440;6.914;2022-11-04T05:49:04;7.90;99.90
16198;DHT22;8206;51.440;6.914;2022-11-04T05:51:31;8.00;99.90
16198;DHT22;8206;51.440;6.914;2022-11-04T05:53:59;8.00;99.90
16198;DHT22;8206;51.440;6.914;2022-11-04T05:56:27;7.90;99.10
16198;DHT22;8206;51.440;6.914;2022-11-04T05:58:54;7.80;98.60
16198;DHT22;8206;51.440;6.914;2022-11-04T06:01:29;7.80;98.20
16198;DHT22;8206;51.440;6.914;2022-11-04T06:03:57;7.80;99.20
16198;DHT22;8206;51.440;6.914;2022-11-04T06:06:26;7.80;99.90
16198;DHT22;8206;51.440;6.914;2022-11-04T06:08:53;7.90;99.20
16198;DHT22;8206;51.440;6.914;2022-11-04T06:11:21;8.00;95.60
16198;DHT22;8206;51.440;6.914;2022-11-04T06:13:49;8.10;90.50
16198;DHT22;8206;51.440;6.914;2022-11-04T06:16:16;8.30;80.30
16198;DHT22;8206;51.440;6.914;2022-11-04T06:18:43;8.40;73.40
16198;DHT22;8206;51.440;6.914;2022-11-04T06:21:19;8.50;63.70
16198;DHT22;8206;51.440;6.914;2022-11-04T06:23:47;8.60;56.80
16198;DHT22;8206;51.440;6.914;2022-11-04T06:26:14;8.70;50.50
16198;DHT22;8206;51.440;6.914;2022-11-04T06:28:41;8.70;46.10
16198;DHT22;8206;51.440;6.914;2022-11-04T06:31:10;8.80;42.90
16198;DHT22;8206;51.440;6.914;2022-11-04T06:33:38;8.80;34.20
16198;DHT22;8206;51.440;6.914;2022-11-04T06:36:06;8.80;41.20
16198;DHT22;8206;51.440;6.914;2022-11-04T06:38:34;8.70;42.30
16198;DHT22;8206;51.440;6.914;2022-11-04T06:41:02;8.70;44.00
16198;DHT22;8206;51.440;6.914;2022-11-04T06:43:29;8.70;49.20
16198;DHT22;8206;51.440;6.914;2022-11-04T06:45:57;8.70;44.70
16198;DHT22;8206;51.440;6.914;2022-11-04T06:48:26;8.80;28.40
16198;DHT22;8206;51.440;6.914;2022-11-04T06:50:55;8.80;11.00
16198;DHT22;8206;51.440;6.914;2022-11-04T06:53:21;8.90;1.00
16198;DHT22;8206;51.440;6.914;2022-11-04T06:55:48;8.90;1.00
16198;DHT22;8206;51.440;6.914;2022-11-04T06:58:16;8.90;1.00
16198;DHT22;8206;51.440;6.914;2022-11-04T07:00:43;9.00;1.00
16198;DHT22;8206;51.440;6.914;2022-11-04T07:03:10;9.00;1.00
16198;DHT22;8206;51.440;6.914;2022-11-04T07:05:38;9.00;1.00
16198;DHT22;8206;51.440;6.914;2022-11-04T07:08:05;9.00;1.00
16198;DHT22;8206;51.440;6.914;2022-11-04T07:10:32;9.10;99.90
16198;DHT22;8206;51.440;6.914;2022-11-04T07:12:59;9.20;1.00
16198;DHT22;8206;51.440;6.914;2022-11-04T07:15:26;9.20;1.00
16198;DHT22;8206;51.440;6.914;2022-11-04T07:17:53;9.30;1.00
16198;DHT22;8206;51.440;6.914;2022-11-04T07:20:20;9.40;1.00
16198;DHT22;8206;51.440;6.914;2022-11-04T07:22:48;9.50;1.00
16198;DHT22;8206;51.440;6.914;2022-11-04T07:25:14;9.60;1.00
16198;DHT22;8206;51.440;6.914;2022-11-04T07:27:41;9.70;1.00
16198;DHT22;8206;51.440;6.914;2022-11-04T07:30:09;9.80;1.00
16198;DHT22;8206;51.440;6.914;2022-11-04T07:32:36;9.80;1.00
16198;DHT22;8206;51.440;6.914;2022-11-04T07:35:03;10.00;1.00
16198;DHT22;8206;51.440;6.914;2022-11-04T07:37:30;10.10;1.00
16198;DHT22;8206;51.440;6.914;2022-11-04T07:39:58;10.10;1.00
16198;DHT22;8206;51.440;6.914;2022-11-04T07:42:25;10.10;1.00
16198;DHT22;8206;51.440;6.914;2022-11-04T07:44:51;10.20;1.00
16198;DHT22;8206;51.440;6.914;2022-11-04T07:47:18;10.20;1.00
16198;DHT22;8206;51.440;6.914;2022-11-04T07:49:45;10.10;1.00
16198;DHT22;8206;51.440;6.914;2022-11-04T07:52:12;10.20;1.00
16198;DHT22;8206;51.440;6.914;2022-11-04T07:54:39;10.10;1.00
16198;DHT22;8206;51.440;6.914;2022-11-04T07:57:07;10.10;1.00
16198;DHT22;8206;51.440;6.914;2022-11-04T07:59:34;10.00;1.00
16198;DHT22;8206;51.440;6.914;2022-11-04T08:02:00;10.10;1.00
16198;DHT22;8206;51.440;6.914;2022-11-04T08:04:27;10.10;1.00
16198;DHT22;8206;51.440;6.914;2022-11-04T08:06:54;10.10;1.00
16198;DHT22;8206;51.440;6.914;2022-11-04T08:09:21;10.10;1.00
16198;DHT22;8206;51.440;6.914;2022-11-04T08:11:47;10.20;1.00
16198;DHT22;8206;51.440;6.914;2022-11-04T08:14:16;10.20;1.00
16198;DHT22;8206;51.440;6.914;2022-11-04T08:16:42;10.30;1.00
16198;DHT22;8206;51.440;6.914;2022-11-04T08:19:09;10.40;1.00
16198;DHT22;8206;51.440;6.914;2022-11-04T08:21:36;10.40;1.00
16198;DHT22;8206;51.440;6.914;2022-11-04T08:24:03;10.60;1.00
16198;DHT22;8206;51.440;6.914;2022-11-04T08:26:30;10.70;1.00
16198;DHT22;8206;51.440;6.914;2022-11-04T08:28:57;10.90;1.00
16198;DHT22;8206;51.440;6.914;2022-11-04T08:31:28;10.90;1.00
16198;DHT22;8206;51.440;6.914;2022-11-04T08:33:56;11.00;1.00
16198;DHT22;8206;51.440;6.914;2022-11-04T08:36:25;11.10;1.00
16198;DHT22;8206;51.440;6.914;2022-11-04T08:38:53;11.10;1.00
16198;DHT22;8206;51.440;6.914;2022-11-04T08:41:23;11.10;1.00
16198;DHT22;8206;51.440;6.914;2022-11-04T08:43:50;11.00;1.00
16198;DHT22;8206;51.440;6.914;2022-11-04T08:46:17;10.90;1.00
16198;DHT22;8206;51.440;6.914;2022-11-04T08:48:45;10.90;1.00
16198;DHT22;8206;51.440;6.914;2022-11-04T08:51:16;10.90;1.00
16198;DHT22;8206;51.440;6.914;2022-11-04T08:53:43;10.90;1.00
16198;DHT22;8206;51.440;6.914;2022-11-04T08:56:11;10.90;1.00
16198;DHT22;8206;51.440;6.914;2022-11-04T08:58:38;10.90;1.00
16198;DHT22;8206;51.440;6.914;2022-11-04T09:01:05;11.00;1.00
16198;DHT22;8206;51.440;6.914;2022-11-04T09:03:32;11.00;1.00
16198;DHT22;8206;51.440;6.914;2022-11-04T09:06:03;11.20;1.00
16198;DHT22;8206;51.440;6.914;2022-11-04T09:08:30;11.40;1.00
16198;DHT22;8206;51.440;6.914;2022-11-04T09:10:57;11.60;1.00
16198;DHT22;8206;51.440;6.914;2022-11-04T09:13:24;11.90;1.00
16198;DHT22;8206;51.440;6.914;2022-11-04T09:15:50;12.20;1.00
16198;DHT22;8206;51.440;6.914;2022-11-04T09:18:17;12.40;1.00
16198;DHT22;8206;51.440;6.914;2022-11-04T09:20:44;12.70;1.00
16198;DHT22;8206;51.440;6.914;2022-11-04T09:23:13;12.70;1.00
16198;DHT22;8206;51.440;6.914;2022-11-04T09:25:39;12.80;1.00
16198;DHT22;8206;51.440;6.914;2022-11-04T09:28:06;12.90;1.00
16198;DHT22;8206;51.440;6.914;2022-11-04T09:30:33;12.90;1.00
16198;DHT22;8206;51.440;6.914;2022-11-04T09:33:00;12.70;1.00
16198;DHT22;8206;51.440;6.914;2022-11-04T09:35:26;12.40;1.00
16198;DHT22;8206;51.440;6.914;2022-11-04T09:37:54;12.30;1.00
16198;DHT22;8206;51.440;6.914;2022-11-04T09:40:23;12.00;1.00
16198;DHT22;8206;51.440;6.914;2022-11-04T09:42:57;11.70;1.00
16198;DHT22;8206;51.440;6.914;2022-11-04T09:45:30;11.60;1.00
16198;DHT22;8206;51.440;6.914;2022-11-04T09:48:01;11.50;1.00
16198;DHT22;8206;51.440;6.914;2022-11-04T09:50:32;11.50;1.00
16198;DHT22;8206;51.440;6.914;2022-11-04T09:53:05;11.50;1.00
16198;DHT22;8206;51.440;6.914;2022-11-04T09:55:38;11.50;1.00
16198;DHT22;8206;51.440;6.914;2022-11-04T09:58:09;11.60;1.00
16198;DHT22;8206;51.440;6.914;2022-11-04T10:00:38;11.50;1.00
16198;DHT22;8206;51.440;6.914;2022-11-04T10:03:18;11.60;1.00
16198;DHT22;8206;51.440;6.914;2022-11-04T10:05:56;11.70;1.00
16198;DHT22;8206;51.440;6.914;2022-11-04T10:08:45;12.00;1.00
16198;DHT22;8206;51.440;6.914;2022-11-04T10:11:20;12.10;1.00
16198;DHT22;8206;51.440;6.914;2022-11-04T10:14:09;12.20;1.00
16198;DHT22;8206;51.440;6.914;2022-11-04T10:17:00;12.30;1.00
16198;DHT22;8206;51.440;6.914;2022-11-04T10:19:41;12.30;1.00
16198;DHT22;8206;51.440;6.914;2022-11-04T10:22:16;12.30;1.00
16198;DHT22;8206;51.440;6.914;2022-11-04T10:24:51;12.30;1.00
16198;DHT22;8206;51.440;6.914;2022-11-04T10:27:24;12.30;1.00
16198;DHT22;8206;51.440;6.914;2022-11-04T10:29:55;12.40;1.00
16198;DHT22;8206;51.440;6.914;2022-11-04T10:32:27;12.50;1.00
16198;DHT22;8206;51.440;6.914;2022-11-04T10:35:01;12.50;1.00
16198;DHT22;8206;51.440;6.914;2022-11-04T10:37:30;12.50;1.00
16198;DHT22;8206;51.440;6.914;2022-11-04T10:40:02;12.50;1.00
16198;DHT22;8206;51.440;6.914;2022-11-04T10:42:33;12.50;99.90
16198;DHT22;8206;51.440;6.914;2022-11-04T10:45:00;12.60;1.00
16198;DHT22;8206;51.440;6.914;2022-11-04T10:47:33;12.70;99.90
16198;DHT22;8206;51.440;6.914;2022-11-04T10:50:25;12.90;99.90
16198;DHT22;8206;51.440;6.914;2022-11-04T10:52:54;13.20;99.90
16198;DHT22;8206;51.440;6.914;2022-11-04T10:55:32;13.20;99.90
16198;DHT22;8206;51.440;6.914;2022-11-04T10:58:11;13.30;99.90
16198;DHT22;8206;51.440;6.914;2022-11-04T11:00:41;13.40;99.90
16198;DHT22;8206;51.440;6.914;2022-11-04T11:03:23;13.60;99.90
16198;DHT22;8206;51.440;6.914;2022-11-04T11:05:51;13.80;99.90
16198;DHT22;8206;51.440;6.914;2022-11-04T11:08:29;14.00;99.90
16198;DHT22;8206;51.440;6.914;2022-11-04T11:10:57;14.20;99.90
16198;DHT22;8206;51.440;6.914;2022-11-04T11:13:27;14.10;99.90
16198;DHT22;8206;51.440;6.914;2022-11-04T11:16:08;14.20;99.90
16198;DHT22;8206;51.440;6.914;2022-11-04T11:18:36;14.20;99.90
16198;DHT22;8206;51.440;6.914;2022-11-04T11:21:07;14.20;99.90
16198;DHT22;8206;51.440;6.914;2022-11-04T11:23:38;14.20;99.90
16198;DHT22;8206;51.440;6.914;2022-11-04T11:26:06;14.20;99.90
16198;DHT22;8206;51.440;6.914;2022-11-04T11:28:35;14.30;99.90
16198;DHT22;8206;51.440;6.914;2022-11-04T11:31:08;14.20;99.90
16198;DHT22;8206;51.440;6.914;2022-11-04T11:33:45;14.00;99.90
16198;DHT22;8206;51.440;6.914;2022-11-04T11:36:19;13.80;99.90
16198;DHT22;8206;51.440;6.914;2022-11-04T11:38:59;13.60;99.90
16198;DHT22;8206;51.440;6.914;2022-11-04T11:41:29;13.40;99.90
16198;DHT22;8206;51.440;6.914;2022-11-04T11:44:03;13.30;99.90
16198;DHT22;8206;51.440;6.914;2022-11-04T11:46:32;13.20;99.90
16198;DHT22;8206;51.440;6.914;2022-11-04T11:49:02;13.20;99.90
16198;DHT22;8206;51.440;6.914;2022-11-04T11:51:31;13.20;99.90
16198;DHT22;8206;51.440;6.914;2022-11-04T11:54:15;13.20;99.90
16198;DHT22;8206;51.440;6.914;2022-11-04T11:56:45;13.10;99.90
16198;DHT22;8206;51.440;6.914;2022-11-04T11:59:22;13.00;99.90
16198;DHT22;8206;51.440;6.914;2022-11-04T12:02:00;13.10;99.90
16198;DHT22;8206;51.440;6.914;2022-11-04T12:04:27;13.20;99.90
16198;DHT22;8206;51.440;6.914;2022-11-04T12:07:03;13.30;99.90
16198;DHT22;8206;51.440;6.914;2022-11-04T12:09:35;13.40;99.90
16198;DHT22;8206;51.440;6.914;2022-11-04T12:12:14;13.50;99.90
16198;DHT22;8206;51.440;6.914;2022-11-04T12:14:55;13.40;99.90
16198;DHT22;8206;51.440;6.914;2022-11-04T12:17:41;13.50;99.90
16198;DHT22;8206;51.440;6.914;2022-11-04T12:20:23;13.60;99.90
16198;DHT22;8206;51.440;6.914;2022-11-04T12:22:58;13.60;99.90
16198;DHT22;8206;51.440;6.914;2022-11-04T12:25:30;13.60;99.90
16198;DHT22;8206;51.440;6.914;2022-11-04T12:28:04;13.70;99.90
16198;DHT22;8206;51.440;6.914;2022-11-04T12:30:46;13.80;99.90
16198;DHT22;8206;51.440;6.914;2022-11-04T12:33:21;13.90;99.90
16198;DHT22;8206;51.440;6.914;2022-11-04T12:36:01;13.90;99.90
16198;DHT22;8206;51.440;6.914;2022-11-04T12:38:48;14.00;99.90
16198;DHT22;8206;51.440;6.914;2022-11-04T12:41:21;14.10;99.90
16198;DHT22;8206;51.440;6.914;2022-11-04T12:43:58;14.10;99.90
16198;DHT22;8206;51.440;6.914;2022-11-04T12:46:36;14.30;99.90
16198;DHT22;8206;51.440;6.914;2022-11-04T12:49:30;14.30;99.90
16198;DHT22;8206;51.440;6.914;2022-11-04T12:52:08;14.20;99.90
16198;DHT22;8206;51.440;6.914;2022-11-04T12:54:58;14.20;99.90
16198;DHT22;8206;51.440;6.914;2022-11-04T12:57:34;14.10;99.90
16198;DHT22;8206;51.440;6.914;2022-11-04T13:00:09;14.20;99.90
16198;DHT22;8206;51.440;6.914;2022-11-04T13:02:42;14.10;99.90
16198;DHT22;8206;51.440;6.914;2022-11-04T13:05:26;14.10;99.90
16198;DHT22;8206;51.440;6.914;2022-11-04T13:07:56;14.00;99.90
16198;DHT22;8206;51.440;6.914;2022-11-04T13:10:27;14.00;99.90
16198;DHT22;8206;51.440;6.914;2022-11-04T13:13:00;14.00;99.90
16198;DHT22;8206;51.440;6.914;2022-11-04T13:15:34;14.10;99.90
16198;DHT22;8206;51.440;6.914;2022-11-04T13:18:05;14.30;99.90
16198;DHT22;8206;51.440;6.914;2022-11-04T13:20:39;14.40;99.90
16198;DHT22;8206;51.440;6.914;2022-11-04T13:23:21;14.40;99.90
16198;DHT22;8206;51.440;6.914;2022-11-04T13:25:50;14.40;99.90
16198;DHT22;8206;51.440;6.914;2022-11-04T13:28:19;14.20;99.90
16198;DHT22;8206;51.440;6.914;2022-11-04T13:30:54;14.10;99.90
16198;DHT22;8206;51.440;6.914;2022-11-04T13:33:34;13.80;99.90
16198;DHT22;8206;51.440;6.914;2022-11-04T13:36:11;13.50;99.90
16198;DHT22;8206;51.440;6.914;2022-11-04T13:38:42;13.30;99.90
16198;DHT22;8206;51.440;6.914;2022-11-04T13:41:39;13.10;99.90
16198;DHT22;8206;51.440;6.914;2022-11-04T13:44:16;13.20;99.90
16198;DHT22;8206;51.440;6.914;2022-11-04T13:46:47;13.20;99.90
16198;DHT22;8206;51.440;6.914;2022-11-04T13:49:22;13.10;99.90
16198;DHT22;8206;51.440;6.914;2022-11-04T13:52:03;12.90;99.90
16198;DHT22;8206;51.440;6.914;2022-11-04T13:54:36;13.00;99.90
16198;DHT22;8206;51.440;6.914;2022-11-04T13:57:07;13.00;99.90
16198;DHT22;8206;51.440;6.914;2022-11-04T13:59:35;12.90;99.90
16198;DHT22;8206;51.440;6.914;2022-11-04T14:02:31;12.90;99.90
16198;DHT22;8206;51.440;6.914;2022-11-04T14:08:17;12.90;99.90
16198;DHT22;8206;51.440;6.914;2022-11-04T14:10:58;12.90;99.90
16198;DHT22;8206;51.440;6.914;2022-11-04T14:16:44;12.80;99.90
16198;DHT22;8206;51.440;6.914;2022-11-04T14:22:20;12.70;99.90
16198;DHT22;8206;51.440;6.914;2022-11-04T14:24:55;12.70;99.90
16198;DHT22;8206;51.440;6.914;2022-11-04T14:27:26;12.70;99.90
16198;DHT22;8206;51.440;6.914;2022-11-04T14:29:54;12.70;99.90
16198;DHT22;8206;51.440;6.914;2022-11-04T14:32:24;12.70;99.90
16198;DHT22;8206;51.440;6.914;2022-11-04T14:35:04;12.80;99.90
16198;DHT22;8206;51.440;6.914;2022-11-04T14:37:33;12.80;99.90
16198;DHT22;8206;51.440;6.914;2022-11-04T14:40:05;12.80;99.90
16198;DHT22;8206;51.440;6.914;2022-11-04T14:42:42;12.80;99.90
16198;DHT22;8206;51.440;6.914;2022-11-04T14:45:15;12.80;99.90
16198;DHT22;8206;51.440;6.914;2022-11-04T14:47:46;12.90;99.90
16198;DHT22;8206;51.440;6.914;2022-11-04T14:50:18;12.90;99.90
16198;DHT22;8206;51.440;6.914;2022-11-04T14:52:47;12.80;99.90
16198;DHT22;8206;51.440;6.914;2022-11-04T14:55:18;12.70;99.90
16198;DHT22;8206;51.440;6.914;2022-11-04T14:57:48;12.70;99.90
16198;DHT22;8206;51.440;6.914;2022-11-04T15:00:34;12.70;99.90
16198;DHT22;8206;51.440;6.914;2022-11-04T15:03:12;12.70;99.90
16198;DHT22;8206;51.440;6.914;2022-11-04T15:05:44;12.60;99.90
16198;DHT22;8206;51.440;6.914;2022-11-04T15:08:25;12.60;99.90
16198;DHT22;8206;51.440;6.914;2022-11-04T15:10:59;12.40;99.90
16198;DHT22;8206;51.440;6.914;2022-11-04T15:13:26;12.40;99.90
16198;DHT22;8206;51.440;6.914;2022-11-04T15:15:54;12.30;99.90
16198;DHT22;8206;51.440;6.914;2022-11-04T15:18:24;12.30;99.90
16198;DHT22;8206;51.440;6.914;2022-11-04T15:20:54;12.20;99.90
16198;DHT22;8206;51.440;6.914;2022-11-04T15:23:25;12.00;99.90
16198;DHT22;8206;51.440;6.914;2022-11-04T15:25:53;12.00;99.90
16198;DHT22;8206;51.440;6.914;2022-11-04T15:28:24;11.90;99.90
16198;DHT22;8206;51.440;6.914;2022-11-04T15:31:07;11.90;99.90
16198;DHT22;8206;51.440;6.914;2022-11-04T15:33:38;11.90;99.90
16198;DHT22;8206;51.440;6.914;2022-11-04T15:36:09;11.80;99.90
16198;DHT22;8206;51.440;6.914;2022-11-04T15:38:41;11.80;99.90
16198;DHT22;8206;51.440;6.914;2022-11-04T15:41:10;11.80;99.90
16198;DHT22;8206;51.440;6.914;2022-11-04T15:43:57;11.70;99.90
16198;DHT22;8206;51.440;6.914;2022-11-04T15:46:25;11.70;99.90
16198;DHT22;8206;51.440;6.914;2022-11-04T15:49:01;11.70;99.90
16198;DHT22;8206;51.440;6.914;2022-11-04T15:51:30;11.60;99.90
16198;DHT22;8206;51.440;6.914;2022-11-04T15:54:02;11.60;99.90
16198;DHT22;8206;51.440;6.914;2022-11-04T15:56:33;11.60;99.90
16198;DHT22;8206;51.440;6.914;2022-11-04T15:59:01;11.50;99.90
16198;DHT22;8206;51.440;6.914;2022-11-04T16:01:33;11.50;99.90
16198;DHT22;8206;51.440;6.914;2022-11-04T16:04:10;11.50;99.90
16198;DHT22;8206;51.440;6.914;2022-11-04T16:06:38;11.50;99.90
16198;DHT22;8206;51.440;6.914;2022-11-04T16:09:17;11.60;99.90
16198;DHT22;8206;51.440;6.914;2022-11-04T16:12:03;11.50;99.90
16198;DHT22;8206;51.440;6.914;2022-11-04T16:14:31;11.40;1.00
16198;DHT22;8206;51.440;6.914;2022-11-04T16:16:58;11.40;1.00
16198;DHT22;8206;51.440;6.914;2022-11-04T16:19:27;11.30;1.00
16198;DHT22;8206;51.440;6.914;2022-11-04T16:21:58;11.30;1.00
16198;DHT22;8206;51.440;6.914;2022-11-04T16:24:27;11.30;1.00
16198;DHT22;8206;51.440;6.914;2022-11-04T16:26:56;11.20;1.00
16198;DHT22;8206;51.440;6.914;2022-11-04T16:29:25;11.10;1.00
16198;DHT22;8206;51.440;6.914;2022-11-04T16:32:17;11.10;1.00
16198;DHT22;8206;51.440;6.914;2022-11-04T16:34:45;11.10;1.00
16198;DHT22;8206;51.440;6.914;2022-11-04T16:37:13;11.00;1.00
16198;DHT22;8206;51.440;6.914;2022-11-04T16:39:42;10.90;1.00